Time;durP1;ratioP1;P1;durP2;ratioP2;P2;SDS_P1;SDS_P2;PMS_P1;PMS_P2;Temp;Humidity;BMP_temperature;BMP_pressure;BME280_temperature;BME280_humidity;BME280_pressure;Samples;Min_cycle;Max_cycle;Signal;HPM_P1;HPM_P2
2021/12/18 00:01:26;;;;;;;47.65;13.35;;;;;;;5.86;100.00;102415.53;5046280;28;20036;-82
2021/12/18 00:03:52;;;;;;;53.90;13.27;;;;;;;5.83;100.00;102420.75;5045480;28;20075;-83
2021/12/18 00:06:17;;;;;;;55.85;13.95;;;;;;;5.82;100.00;102416.34;5045778;28;20025;-82
2021/12/18 00:08:43;;;;;;;59.25;14.85;;;;;;;5.82;100.00;102425.16;5036124;28;20167;-81
2021/12/18 00:11:09;;;;;;;52.38;13.15;;;;;;;5.81;100.00;102420.72;5038055;28;20471;-82
2021/12/18 00:13:35;;;;;;;45.03;12.63;;;;;;;5.81;100.00;102418.09;5038804;28;20021;-82
2021/12/18 00:16:00;;;;;;;44.58;13.10;;;;;;;5.80;100.00;102421.56;5039530;28;20029;-82
2021/12/18 00:18:26;;;;;;;37.80;11.43;;;;;;;5.81;100.00;102423.38;5041980;28;20061;-83
2021/12/18 00:20:52;;;;;;;31.02;9.60;;;;;;;5.84;100.00;102426.97;5043145;28;20028;-83
2021/12/18 00:23:17;;;;;;;26.23;8.90;;;;;;;5.83;100.00;102428.72;5043617;28;20031;-81
2021/12/18 00:25:43;;;;;;;30.17;8.90;;;;;;;5.82;100.00;102414.56;5043469;28;20033;-82
2021/12/18 00:28:09;;;;;;;29.80;8.43;;;;;;;5.78;100.00;102417.09;5042067;28;20018;-82
2021/12/18 00:30:35;;;;;;;31.33;8.50;;;;;;;5.75;100.00;102419.66;5042877;28;20108;-82
2021/12/18 00:33:02;;;;;;;29.92;8.98;;;;;;;5.79;100.00;102418.91;5044125;28;20465;-82
2021/12/18 00:35:27;;;;;;;30.38;8.05;;;;;;;5.80;100.00;102418.03;5044862;28;20057;-82
2021/12/18 00:37:52;;;;;;;43.40;9.30;;;;;;;5.75;100.00;102412.63;5045217;28;20044;-82
2021/12/18 00:40:26;;;;;;;44.33;10.13;;;;;;;5.75;100.00;102411.72;5042900;28;20048;-82
2021/12/18 00:43:01;;;;;;;42.50;10.40;;;;;;;5.75;100.00;102412.63;5043432;28;20048;-82
2021/12/18 00:45:28;;;;;;;51.30;11.57;;;;;;;5.76;100.00;102426.78;5034751;28;20379;-82
2021/12/18 00:47:55;;;;;;;48.45;11.35;;;;;;;5.73;100.00;102414.34;5037394;28;20025;-82
2021/12/18 00:50:26;;;;;;;45.38;11.85;;;;;;;5.73;100.00;102418.75;5038035;28;20025;-82
2021/12/18 00:52:51;;;;;;;38.70;9.77;;;;;;;5.72;100.00;102416.97;5039049;28;20070;-81
2021/12/18 00:55:20;;;;;;;35.33;10.15;;;;;;;5.70;100.00;102412.50;5040208;28;20035;-82
2021/12/18 00:57:45;;;;;;;36.42;10.50;;;;;;;5.69;100.00;102417.78;5040676;28;20044;-82
2021/12/18 01:00:13;;;;;;;34.95;9.40;;;;;;;5.69;100.00;102413.38;5043160;28;20498;-82
2021/12/18 01:02:43;;;;;;;39.72;9.82;;;;;;;5.66;100.00;102413.31;5042432;28;20112;-82
2021/12/18 01:05:08;;;;;;;33.85;8.98;;;;;;;5.66;100.00;102412.41;5041973;28;20025;-81
2021/12/18 01:07:34;;;;;;;44.75;10.05;;;;;;;5.65;100.00;102416.78;5044076;28;20048;-83
2021/12/18 01:10:15;;;;;;;43.00;9.02;;;;;;;5.64;100.00;102415.03;5045111;28;20033;-83
2021/12/18 01:12:44;;;;;;;35.30;9.05;;;;;;;5.66;100.00;102421.25;5042989;28;20021;-82
2021/12/18 01:15:19;;;;;;;34.25;9.27;;;;;;;5.68;100.00;102424.84;5045264;28;20025;-82
2021/12/18 01:23:14;;;;;;;34.97;8.60;;;;;;;5.67;100.00;102423.03;5038427;28;20037;-82
2021/12/18 01:25:39;;;;;;;32.17;8.30;;;;;;;5.67;100.00;102423.03;5041968;28;20025;-83
2021/12/18 01:28:04;;;;;;;34.88;8.55;;;;;;;5.67;100.00;102420.38;5045456;28;20040;-82
2021/12/18 01:30:30;;;;;;;29.73;7.97;;;;;;;5.68;100.00;102422.19;5037244;28;20065;-83
2021/12/18 01:32:55;;;;;;;25.48;7.55;;;;;;;5.70;100.00;102420.47;5036635;28;20075;-82
2021/12/18 01:35:22;;;;;;;32.90;8.15;;;;;;;5.69;100.00;102424.00;5035415;28;20394;-83
2021/12/18 01:37:49;;;;;;;27.88;7.80;;;;;;;5.74;100.00;102420.53;5035205;28;20489;-83
2021/12/18 01:40:15;;;;;;;30.60;7.20;;;;;;;5.69;100.00;102428.38;5045961;28;20466;-83
2021/12/18 01:43:36;;;;;;;26.95;7.63;;;;;;;5.68;100.00;102438.09;5035639;28;20022;-82
2021/12/18 01:45:43;;;;;;;25.50;7.70;;;;;;;5.67;100.00;102435.41;5034985;28;20021;-82
2021/12/18 01:51:17;;;;;;;;;;;;;;;5.63;100.00;102425.56;5036063;28;20036;-82
2021/12/18 01:53:43;;;;;;;25.83;7.40;;;;;;;5.64;100.00;102424.72;5034357;28;19916;-82
2021/12/18 01:56:09;;;;;;;33.40;7.65;;;;;;;5.60;100.00;102421.09;5037253;28;20022;-82
2021/12/18 01:58:35;;;;;;;29.83;8.20;;;;;;;5.62;100.00;102424.66;5039194;28;20402;-82
2021/12/18 02:01:03;;;;;;;100.88;11.45;;;;;;;5.58;100.00;102425.47;5038366;28;20108;-81
2021/12/18 02:03:29;;;;;;;53.58;8.90;;;;;;;5.63;100.00;102429.13;5039902;28;20051;-82
2021/12/18 02:05:55;;;;;;;23.52;7.60;;;;;;;5.60;100.00;102429.03;5038478;28;20021;-81
2021/12/18 02:08:23;;;;;;;26.10;8.05;;;;;;;5.58;100.00;102430.75;5038934;28;20401;-82
2021/12/18 02:11:10;;;;;;;28.20;8.45;;;;;;;5.57;100.00;102429.84;5038808;28;20025;-82
2021/12/18 02:21:32;;;;;;;15.73;4.88;;;;;;;5.42;100.00;102440.97;5039900;28;20032;-82
2021/12/18 02:23:57;;;;;;;13.00;4.32;;;;;;;5.42;100.00;102430.34;5040469;28;20026;-82
2021/12/18 02:26:23;;;;;;;14.07;4.57;;;;;;;5.40;100.00;102432.06;5038530;28;20440;-82
2021/12/18 02:28:51;;;;;;;17.20;4.82;;;;;;;5.38;100.00;102433.78;5040382;28;20025;-82
2021/12/18 02:31:17;;;;;;;18.00;5.20;;;;;;;5.38;100.00;102435.53;5040207;28;20025;-81
2021/12/18 02:33:43;;;;;;;12.02;4.43;;;;;;;5.35;100.00;102434.59;5042678;28;20021;-83
2021/12/18 02:36:11;;;;;;;12.93;4.03;;;;;;;5.34;100.00;102437.19;5038509;28;20026;-81
2021/12/18 02:39:02;;;;;;;11.35;3.17;;;;;;;5.30;100.00;102424.75;5039984;28;20032;-82
2021/12/18 02:44:05;;;;;;;9.32;3.50;;;;;;;5.29;100.00;102429.13;5040939;28;20080;-82
2021/12/18 02:46:32;;;;;;;12.32;3.50;;;;;;;5.28;100.00;102429.09;5040963;28;20405;-82
2021/12/18 02:49:03;;;;;;;10.40;3.47;;;;;;;5.23;100.00;102424.56;5041893;28;20068;-82
2021/12/18 02:51:31;;;;;;;12.63;3.58;;;;;;;5.26;100.00;102421.09;5041893;28;20057;-82
2021/12/18 02:53:56;;;;;;;14.18;3.40;;;;;;;5.25;100.00;102417.56;5040283;28;20544;-82
2021/12/18 02:56:23;;;;;;;11.80;3.78;;;;;;;5.24;100.00;102407.81;5039670;28;20029;-82
2021/12/18 02:58:51;;;;;;;14.98;3.97;;;;;;;5.27;100.00;102408.75;5040960;28;20026;-82
2021/12/18 03:01:20;;;;;;;12.38;3.50;;;;;;;5.26;100.00;102410.50;5040866;28;20032;-82
2021/12/18 03:03:47;;;;;;;13.73;4.07;;;;;;;5.24;100.00;102404.28;5041990;28;20100;-82
2021/12/18 03:06:33;;;;;;;16.08;4.18;;;;;;;5.24;100.00;102407.81;5040206;28;20401;-82
2021/12/18 03:25:16;;;;;;;14.32;4.22;;;;;;;5.13;100.00;102386.34;5040678;28;20406;-82
2021/12/18 03:27:42;;;;;;;14.52;4.20;;;;;;;5.12;100.00;102384.56;5038987;28;20588;-82
2021/12/18 03:30:10;;;;;;;14.52;4.22;;;;;;;5.11;100.00;102376.56;5038958;28;20049;-82
2021/12/18 03:32:36;;;;;;;20.58;4.75;;;;;;;5.12;100.00;102384.56;5038702;28;20029;-82
2021/12/18 03:35:03;;;;;;;16.10;5.13;;;;;;;5.09;100.00;102384.47;5038606;28;20022;-82
2021/12/18 03:37:28;;;;;;;14.60;4.60;;;;;;;5.05;100.00;102384.38;5039407;28;20026;-81
2021/12/18 03:39:53;;;;;;;14.60;4.35;;;;;;;5.01;100.00;102389.56;5038930;28;20075;-82
2021/12/18 03:42:19;;;;;;;12.52;3.55;;;;;;;4.94;100.00;102379.66;5038826;28;20052;-82
2021/12/18 03:44:44;;;;;;;12.02;3.30;;;;;;;4.94;100.00;102378.75;5038675;28;20052;-84
2021/12/18 03:47:10;;;;;;;12.75;3.08;;;;;;;4.91;100.00;102376.94;5038004;28;20025;-85
2021/12/18 03:49:35;;;;;;;12.35;3.70;;;;;;;4.90;100.00;102377.78;5043598;28;20081;-83
2021/12/18 03:52:00;;;;;;;13.90;3.13;;;;;;;4.89;100.00;102392.78;5043191;28;20030;-84
2021/12/18 03:54:26;;;;;;;11.05;2.80;;;;;;;4.86;100.00;102387.41;5041668;28;20033;-83
2021/12/18 03:56:51;;;;;;;10.52;2.80;;;;;;;4.87;100.00;102389.16;5041897;28;20040;-83
2021/12/18 03:59:18;;;;;;;11.93;3.22;;;;;;;4.86;100.00;102391.78;5043027;28;20022;-84
2021/12/18 04:01:43;;;;;;;13.98;3.33;;;;;;;4.85;100.00;102398.81;5041470;28;20037;-84
2021/12/18 04:04:09;;;;;;;9.10;2.60;;;;;;;4.85;100.00;102389.97;5039360;28;20025;-84
2021/12/18 04:06:38;;;;;;;7.50;2.50;;;;;;;4.80;100.00;102393.41;5039921;28;20025;-83
2021/12/18 04:09:03;;;;;;;8.10;2.47;;;;;;;4.76;100.00;102390.63;5039940;28;20029;-83
2021/12/18 04:11:28;;;;;;;8.35;2.47;;;;;;;4.75;100.00;102384.44;5039299;28;20025;-84
2021/12/18 04:13:54;;;;;;;5.97;2.10;;;;;;;4.77;100.00;102392.41;5041081;28;20026;-83
2021/12/18 04:16:19;;;;;;;8.85;2.78;;;;;;;4.73;100.00;102391.44;5040300;28;20048;-83
2021/12/18 04:18:44;;;;;;;6.10;2.00;;;;;;;4.69;100.00;102386.94;5037295;28;20112;-84
2021/12/18 04:21:10;;;;;;;6.68;2.47;;;;;;;4.68;100.00;102382.47;5040119;28;20539;-83
2021/12/18 04:23:35;;;;;;;6.60;2.05;;;;;;;4.68;100.00;102382.47;5038112;28;20462;-83
2021/12/18 04:26:01;;;;;;;7.78;2.17;;;;;;;4.67;100.00;102385.97;5038740;28;20021;-83
2021/12/18 04:28:26;;;;;;;7.25;2.22;;;;;;;4.69;100.00;102384.28;5037100;28;20117;-83
2021/12/18 04:30:52;;;;;;;12.68;3.40;;;;;;;4.68;100.00;102377.19;5039355;28;20435;-82
2021/12/18 04:33:17;;;;;;;7.43;2.85;;;;;;;4.69;100.00;102379.00;5038738;28;20080;-84
2021/12/18 04:35:43;;;;;;;9.52;3.20;;;;;;;4.66;100.00;102379.81;5038952;28;20079;-82
2021/12/18 04:38:09;;;;;;;9.68;2.83;;;;;;;4.65;100.00;102377.09;5040854;28;20489;-83
2021/12/18 04:40:35;;;;;;;10.13;2.75;;;;;;;4.65;100.00;102378.00;5037916;28;20021;-84
2021/12/18 04:43:01;;;;;;;8.15;3.05;;;;;;;4.65;100.00;102377.09;5038323;28;20021;-83
2021/12/18 04:45:27;;;;;;;10.35;2.67;;;;;;;4.67;100.00;102380.66;5038666;28;20025;-85
2021/12/18 04:47:52;;;;;;;8.93;3.22;;;;;;;4.64;100.00;102376.19;5039699;28;20026;-82
2021/12/18 04:50:18;;;;;;;10.65;3.50;;;;;;;4.64;100.00;102378.84;5039791;28;20475;-83
2021/12/18 04:52:43;;;;;;;14.35;3.95;;;;;;;4.62;100.00;102375.25;5038646;28;20025;-82
2021/12/18 04:55:09;;;;;;;12.30;3.70;;;;;;;4.63;100.00;102376.16;5038777;28;20433;-83
2021/12/18 04:57:34;;;;;;;13.85;3.58;;;;;;;4.66;100.00;102373.59;5038576;28;20101;-83
2021/12/18 05:00:00;;;;;;;11.52;4.03;;;;;;;4.65;100.00;102377.09;5036696;28;20049;-83
2021/12/18 05:02:36;;;;;;;11.55;3.42;;;;;;;4.69;100.00;102376.34;5035243;28;20025;-84
2021/12/18 05:05:03;;;;;;;13.80;4.18;;;;;;;4.69;100.00;102379.00;5038218;28;20480;-84
2021/12/18 05:07:29;;;;;;;18.17;4.28;;;;;;;4.68;100.00;102377.19;5038570;28;20017;-83
2021/12/18 05:09:54;;;;;;;15.32;4.57;;;;;;;4.73;100.00;102369.38;5038419;28;20112;-84
2021/12/18 05:12:20;;;;;;;15.40;4.30;;;;;;;4.76;100.00;102370.38;5039517;28;20025;-84
2021/12/18 05:14:45;;;;;;;15.63;4.32;;;;;;;4.76;100.00;102378.31;5040418;28;20037;-83
2021/12/18 05:17:11;;;;;;;12.50;4.22;;;;;;;4.71;100.00;102382.56;5038891;28;20029;-84
2021/12/18 05:19:36;;;;;;;13.95;4.80;;;;;;;4.73;100.00;102379.97;5042093;28;20014;-83
2021/12/18 05:22:03;;;;;;;16.70;5.45;;;;;;;4.73;100.00;102380.84;5040495;28;20064;-84
2021/12/18 05:24:29;;;;;;;13.43;4.72;;;;;;;4.77;100.00;102379.19;5040940;28;20442;-84
2021/12/18 05:26:54;;;;;;;12.57;4.07;;;;;;;4.74;100.00;102382.63;5040514;28;20560;-83
2021/12/18 05:29:20;;;;;;;15.30;3.78;;;;;;;4.80;100.00;102376.63;5038968;28;20052;-83
2021/12/18 05:31:45;;;;;;;13.55;4.10;;;;;;;4.76;100.00;102374.75;5039683;28;20032;-82
2021/12/18 05:34:11;;;;;;;14.15;4.05;;;;;;;4.82;100.00;102384.63;5035082;28;20025;-82
2021/12/18 05:37:13;;;;;;;26.38;5.13;;;;;;;4.76;100.00;102393.28;5034444;28;20026;-83
2021/12/18 05:39:24;;;;;;;33.83;5.30;;;;;;;4.73;100.00;102387.91;5035350;28;20037;-83
2021/12/18 05:41:50;;;;;;;86.35;7.72;;;;;;;4.72;100.00;102387.00;5036380;28;20048;-83
2021/12/18 05:44:17;;;;;;;212.30;13.90;;;;;;;4.67;100.00;102381.56;5036612;28;20022;-83
2021/12/18 05:46:44;;;;;;;25.70;5.93;;;;;;;4.46;100.00;102388.03;5051334;22;20033;-77
2021/12/18 05:49:09;;;;;;;39.45;6.45;;;;;;;4.30;100.00;102392.00;5032796;28;20044;-76
2021/12/18 05:51:35;;;;;;;53.60;7.47;;;;;;;4.29;100.00;102392.81;5032981;28;20021;-76
2021/12/18 05:54:00;;;;;;;52.42;7.20;;;;;;;4.20;100.00;102390.78;5033251;28;20386;-76
2021/12/18 05:56:25;;;;;;;20.85;5.88;;;;;;;4.16;100.00;102391.56;5033621;28;20028;-76
2021/12/18 05:58:51;;;;;;;17.45;4.55;;;;;;;4.09;100.00;102390.47;5058097;22;20088;-75
2021/12/18 06:01:18;;;;;;;25.25;6.18;;;;;;;4.06;100.00;102394.75;5033212;28;20486;-75
2021/12/18 06:03:44;;;;;;;38.05;6.80;;;;;;;4.04;100.00;102397.38;5033497;28;20552;-75
2021/12/18 06:06:09;;;;;;;35.25;6.25;;;;;;;4.03;100.00;102395.56;5032914;28;20033;-75
2021/12/18 06:08:36;;;;;;;28.17;5.50;;;;;;;4.01;100.00;102402.56;5034434;28;20025;-76
2021/12/18 06:11:07;;;;;;;18.70;4.95;;;;;;;3.98;100.00;102397.16;5031947;28;20040;-75
2021/12/18 06:13:33;;;;;;;15.60;3.42;;;;;;;3.95;100.00;102399.69;5032826;28;20493;-75
2021/12/18 06:15:59;;;;;;;14.48;2.75;;;;;;;3.91;100.00;102404.91;5032862;28;20036;-75
2021/12/18 06:18:24;;;;;;;13.82;2.95;;;;;;;3.85;100.00;102396.78;5031621;28;20021;-75
2021/12/18 06:20:49;;;;;;;11.18;2.30;;;;;;;3.87;100.00;102413.56;5033021;28;20033;-74
2021/12/18 06:23:14;;;;;;;10.43;2.58;;;;;;;3.84;100.00;102404.66;5032802;28;20051;-74
2021/12/18 06:25:40;;;;;;;9.95;2.78;;;;;;;3.80;100.00;102401.91;5032719;28;20026;-74
2021/12/18 06:28:05;;;;;;;10.52;3.13;;;;;;;3.81;100.00;102405.47;5032685;28;20093;-74
2021/12/18 06:30:30;;;;;;;8.38;2.35;;;;;;;3.82;100.00;102399.31;5032517;28;20080;-74
2021/12/18 06:32:56;;;;;;;9.63;2.38;;;;;;;3.80;100.00;102395.72;5032863;28;20036;-74
2021/12/18 06:35:21;;;;;;;13.77;3.15;;;;;;;3.82;100.00;102398.41;5032896;28;20140;-74
2021/12/18 06:37:46;;;;;;;10.23;2.88;;;;;;;3.82;100.00;102399.31;5032551;28;20025;-74
2021/12/18 06:40:12;;;;;;;11.48;2.70;;;;;;;3.83;100.00;102394.94;5032486;28;20536;-74
2021/12/18 06:42:40;;;;;;;9.10;2.50;;;;;;;3.85;100.00;102399.41;5034199;28;20031;-74
2021/12/18 06:45:07;;;;;;;9.90;2.60;;;;;;;3.87;100.00;102395.06;5036738;28;20099;-74
2021/12/18 06:47:33;;;;;;;10.73;2.75;;;;;;;3.87;100.00;102388.88;5036860;28;20133;-74
2021/12/18 06:49:58;;;;;;;12.60;3.53;;;;;;;3.87;100.00;102397.72;5036289;28;20112;-74
2021/12/18 06:52:23;;;;;;;11.55;3.45;;;;;;;3.88;100.00;102394.22;5036153;28;20021;-74
2021/12/18 06:54:49;;;;;;;10.48;3.05;;;;;;;3.87;100.00;102402.09;5034781;28;20116;-74
2021/12/18 06:57:14;;;;;;;12.98;3.22;;;;;;;3.90;100.00;102396.91;5035772;28;20037;-74
2021/12/18 06:59:39;;;;;;;9.00;2.97;;;;;;;3.96;100.00;102398.88;5035896;28;20056;-75
2021/12/18 07:02:05;;;;;;;10.60;3.53;;;;;;;3.98;100.00;102395.41;5036174;28;20025;-74
2021/12/18 07:04:30;;;;;;;10.70;3.67;;;;;;;4.01;100.00;102395.53;5035853;28;20367;-74
2021/12/18 07:06:55;;;;;;;13.02;4.30;;;;;;;4.00;100.00;102400.75;5036120;28;20033;-74
2021/12/18 07:09:21;;;;;;;10.50;3.08;;;;;;;3.97;100.00;102392.75;5034379;28;20029;-74
2021/12/18 07:11:46;;;;;;;7.95;2.95;;;;;;;3.98;100.00;102399.81;5036036;28;20477;-74
2021/12/18 07:14:12;;;;;;;8.68;3.20;;;;;;;4.01;100.00;102394.63;5035677;28;20033;-74
2021/12/18 07:16:38;;;;;;;10.57;3.28;;;;;;;3.99;100.00;102396.31;5035789;28;20029;-74
2021/12/18 07:19:03;;;;;;;7.10;3.05;;;;;;;3.99;100.00;102393.69;5035455;28;20079;-75
2021/12/18 07:21:29;;;;;;;8.25;2.47;;;;;;;3.97;100.00;102392.75;5035922;28;20065;-74
2021/12/18 07:23:54;;;;;;;7.63;2.92;;;;;;;3.96;100.00;102391.84;5036294;28;20053;-74
2021/12/18 07:26:19;;;;;;;7.50;2.67;;;;;;;3.91;100.00;102390.78;5035209;28;20112;-75
2021/12/18 07:28:45;;;;;;;7.28;2.75;;;;;;;3.89;100.00;102385.44;5034231;28;20481;-74
2021/12/18 07:31:10;;;;;;;10.38;3.00;;;;;;;3.90;100.00;102386.34;5035337;28;20422;-74
2021/12/18 07:33:37;;;;;;;8.98;3.05;;;;;;;3.92;100.00;102389.94;5035516;28;20444;-74
2021/12/18 07:36:06;;;;;;;7.65;2.65;;;;;;;3.93;100.00;102390.81;5035402;28;20029;-74
2021/12/18 07:38:31;;;;;;;7.43;2.63;;;;;;;3.93;100.00;102385.53;5034432;28;20021;-74
2021/12/18 07:40:56;;;;;;;8.93;2.88;;;;;;;3.83;100.00;102385.25;5035409;28;20537;-74
2021/12/18 07:43:21;;;;;;;9.27;3.03;;;;;;;3.78;100.00;102385.13;5034155;28;20030;-74
2021/12/18 07:45:47;;;;;;;11.13;3.15;;;;;;;3.77;100.00;102392.97;5035124;28;20024;-74
2021/12/18 07:48:12;;;;;;;7.95;2.80;;;;;;;3.75;100.00;102394.69;5035288;28;20025;-74
2021/12/18 07:50:37;;;;;;;8.85;2.60;;;;;;;3.74;100.00;102395.50;5034917;28;20033;-74
2021/12/18 07:53:03;;;;;;;7.25;2.85;;;;;;;3.77;100.00;102400.91;5034166;28;20032;-74
2021/12/18 07:55:29;;;;;;;5.22;1.85;;;;;;;3.75;100.00;102407.88;5034865;28;20425;-74
2021/12/18 07:57:55;;;;;;;5.68;2.03;;;;;;;3.74;100.00;102407.00;5034678;28;20029;-74
2021/12/18 08:00:21;;;;;;;6.05;2.50;;;;;;;3.77;100.00;102396.53;5034799;28;20021;-74
2021/12/18 08:02:46;;;;;;;7.78;2.63;;;;;;;3.84;100.00;102392.31;5035328;28;20486;-74
2021/12/18 08:05:12;;;;;;;8.30;2.78;;;;;;;3.80;100.00;102401.00;5041796;28;20035;-74
2021/12/18 08:07:38;;;;;;;7.38;2.60;;;;;;;3.86;100.00;102401.22;5034921;28;20029;-74
2021/12/18 08:10:04;;;;;;;6.28;2.50;;;;;;;3.89;100.00;102395.13;5034917;28;20029;-74
2021/12/18 08:12:29;;;;;;;6.55;2.35;;;;;;;3.89;100.00;102389.84;5034626;28;20029;-74
2021/12/18 08:14:56;;;;;;;7.38;2.63;;;;;;;3.87;100.00;102392.44;5034923;28;20030;-74
2021/12/18 08:17:22;;;;;;;6.25;2.83;;;;;;;3.95;100.00;102392.69;5034555;28;20022;-74
2021/12/18 08:19:48;;;;;;;9.68;3.22;;;;;;;3.98;100.00;102397.16;5034441;28;20116;-74
2021/12/18 08:22:13;;;;;;;8.90;3.65;;;;;;;4.00;100.00;102393.72;5034550;28;20057;-74
2021/12/18 08:24:38;;;;;;;10.48;4.30;;;;;;;3.99;100.00;102398.97;5033082;28;20397;-74
2021/12/18 08:27:04;;;;;;;9.85;3.40;;;;;;;3.91;100.00;102396.97;5034309;28;20063;-74
2021/12/18 08:29:29;;;;;;;9.05;3.70;;;;;;;3.92;100.00;102405.78;5034153;28;20025;-74
2021/12/18 08:31:54;;;;;;;9.10;3.92;;;;;;;4.00;100.00;102398.09;5034453;28;20382;-74
2021/12/18 08:34:21;;;;;;;9.25;3.85;;;;;;;3.92;100.00;102400.50;5034106;28;20025;-75
2021/12/18 08:36:47;;;;;;;8.65;3.20;;;;;;;3.99;100.00;102404.25;5033934;28;20498;-75
2021/12/18 08:39:12;;;;;;;10.07;3.80;;;;;;;3.96;100.00;102401.50;5033015;28;20111;-74
2021/12/18 08:41:39;;;;;;;9.65;3.47;;;;;;;3.97;100.00;102398.03;5045326;28;20021;-75
2021/12/18 08:44:04;;;;;;;10.05;4.07;;;;;;;3.97;100.00;102398.03;5034607;28;20111;-74
2021/12/18 08:46:30;;;;;;;7.80;3.22;;;;;;;4.01;100.00;102394.63;5032858;28;20056;-75
2021/12/18 08:48:55;;;;;;;8.25;3.55;;;;;;;4.01;100.00;102397.25;5034460;28;20048;-76
2021/12/18 08:51:21;;;;;;;8.15;3.15;;;;;;;4.03;100.00;102403.50;5033829;28;20030;-75
2021/12/18 08:53:46;;;;;;;6.75;3.13;;;;;;;4.01;100.00;102394.63;5034183;28;20471;-75
2021/12/18 08:56:12;;;;;;;9.00;3.42;;;;;;;3.95;100.00;102394.41;5033875;28;20025;-75
2021/12/18 08:58:37;;;;;;;8.75;3.47;;;;;;;4.03;100.00;102392.91;5033652;28;20498;-75
2021/12/18 09:01:04;;;;;;;9.02;3.10;;;;;;;4.11;100.00;102391.41;5032441;28;20470;-75
2021/12/18 09:03:29;;;;;;;8.05;3.17;;;;;;;4.17;100.00;102387.16;5034039;28;20030;-75
2021/12/18 09:05:55;;;;;;;7.03;3.58;;;;;;;4.16;100.00;102385.38;5033615;28;20516;-75
2021/12/18 09:08:20;;;;;;;8.00;3.60;;;;;;;4.23;100.00;102390.88;5033811;28;20076;-75
2021/12/18 09:10:45;;;;;;;8.85;3.40;;;;;;;4.24;100.00;102391.78;5033715;28;20024;-76
2021/12/18 09:13:12;;;;;;;7.35;2.80;;;;;;;4.28;100.00;102396.31;5033790;28;20120;-75
2021/12/18 09:15:38;;;;;;;7.32;3.22;;;;;;;4.38;100.00;102396.59;5033828;28;20021;-75
2021/12/18 09:18:03;;;;;;;10.43;3.97;;;;;;;4.22;100.00;102401.44;5039637;28;20025;-75
2021/12/18 09:20:29;;;;;;;8.80;3.10;;;;;;;4.35;100.00;102390.38;5040484;28;20382;-75
2021/12/18 09:22:54;;;;;;;8.55;3.38;;;;;;;4.32;100.00;102392.03;5033563;28;20057;-75
2021/12/18 09:25:19;;;;;;;10.23;3.80;;;;;;;4.33;100.00;102391.19;5033878;28;20025;-75
2021/12/18 09:27:44;;;;;;;8.02;3.58;;;;;;;4.46;100.00;102400.34;5033304;28;20100;-75
2021/12/18 09:30:14;;;;;;;8.40;3.80;;;;;;;4.40;100.00;102397.56;5033108;28;20018;-75
2021/12/18 09:32:40;;;;;;;10.73;4.38;;;;;;;4.30;100.00;102381.41;5033325;28;20022;-75
2021/12/18 09:35:08;;;;;;;13.25;4.57;;;;;;;4.29;100.00;102392.81;5033567;28;20026;-75
2021/12/18 09:37:33;;;;;;;12.90;5.30;;;;;;;4.36;100.00;102389.50;5031976;28;20022;-75
2021/12/18 09:39:58;;;;;;;12.75;6.72;;;;;;;4.35;100.00;102384.19;5033117;28;20160;-75
2021/12/18 09:42:24;;;;;;;9.90;4.10;;;;;;;4.43;100.00;102392.34;5033190;28;20079;-75
2021/12/18 09:44:50;;;;;;;9.57;4.50;;;;;;;4.46;100.00;102397.72;5034020;28;20470;-75
2021/12/18 09:47:17;;;;;;;12.70;5.00;;;;;;;4.37;100.00;102387.78;5033706;28;20478;-75
2021/12/18 09:49:45;;;;;;;10.73;4.95;;;;;;;4.45;100.00;102380.06;5032986;28;20040;-75
2021/12/18 09:52:10;;;;;;;11.30;5.10;;;;;;;4.43;100.00;102387.06;5033182;28;20486;-75
2021/12/18 09:54:35;;;;;;;13.73;5.47;;;;;;;4.35;100.00;102385.09;5033462;28;20113;-75
2021/12/18 09:57:01;;;;;;;14.13;5.22;;;;;;;4.36;100.00;102383.31;5034850;28;20552;-75
2021/12/18 09:59:26;;;;;;;15.05;5.68;;;;;;;4.40;100.00;102379.03;5033332;28;20029;-76
2021/12/18 10:01:52;;;;;;;15.20;5.97;;;;;;;4.42;100.00;102379.97;5032985;28;20056;-75
2021/12/18 10:04:30;;;;;;;15.85;5.70;;;;;;;4.40;100.00;102376.38;5033164;28;20036;-76
2021/12/18 10:06:58;;;;;;;15.10;5.95;;;;;;;4.41;100.00;102379.06;5033247;28;20029;-75
2021/12/18 10:09:23;;;;;;;18.55;6.65;;;;;;;4.47;100.00;102375.72;5032906;28;20393;-75
2021/12/18 10:11:51;;;;;;;16.10;6.23;;;;;;;4.42;100.00;102372.03;5032893;28;20482;-75
2021/12/18 10:14:19;;;;;;;19.58;6.55;;;;;;;4.44;100.00;102373.88;5032813;28;20250;-75
2021/12/18 10:16:47;;;;;;;18.40;7.03;;;;;;;4.54;100.00;102363.53;5034428;28;20021;-75
2021/12/18 10:19:38;;;;;;;15.27;6.15;;;;;;;4.57;100.00;102363.63;5036879;28;20052;-75
2021/12/18 10:22:07;;;;;;;19.63;6.97;;;;;;;4.59;100.00;102364.56;5029588;28;20037;-75
2021/12/18 10:24:34;;;;;;;16.98;7.32;;;;;;;4.58;100.00;102366.34;5036522;28;20371;-75
2021/12/18 10:27:00;;;;;;;21.48;7.68;;;;;;;4.54;100.00;102364.44;5036497;28;20410;-75
2021/12/18 10:29:34;;;;;;;17.92;7.32;;;;;;;4.66;100.00;102360.38;5035110;28;20022;-75
2021/12/18 10:32:15;;;;;;;18.10;7.30;;;;;;;4.56;100.00;102367.16;5037049;28;20026;-75
2021/12/18 10:34:48;;;;;;;16.23;7.15;;;;;;;4.64;100.00;102360.31;5036045;28;20033;-75
2021/12/18 10:37:17;;;;;;;14.77;5.68;;;;;;;4.63;100.00;102352.34;5035946;28;20033;-75
2021/12/18 10:39:53;;;;;;;15.35;6.68;;;;;;;4.65;100.00;102353.28;5037105;28;20026;-75
2021/12/18 10:42:33;;;;;;;16.42;6.90;;;;;;;4.63;100.00;102360.28;5036360;28;20486;-75
2021/12/18 10:45:05;;;;;;;15.63;7.03;;;;;;;4.55;100.00;102355.66;5036358;28;20132;-75
2021/12/18 10:48:03;;;;;;;14.48;5.25;;;;;;;4.56;100.00;102351.28;5036481;28;20379;-76
2021/12/18 10:50:36;;;;;;;14.25;5.40;;;;;;;4.57;100.00;102348.66;5036234;28;20017;-75
2021/12/18 10:53:17;;;;;;;13.65;4.95;;;;;;;4.64;100.00;102351.50;5036321;28;20036;-75
2021/12/18 10:55:54;;;;;;;14.80;5.72;;;;;;;4.67;100.00;102343.63;5036025;28;20034;-75
2021/12/18 10:58:25;;;;;;;13.05;5.78;;;;;;;4.61;100.00;102348.75;5035938;28;20034;-75
2021/12/18 11:00:57;;;;;;;11.00;4.95;;;;;;;4.64;100.00;102338.25;5036389;28;20482;-76
2021/12/18 11:03:27;;;;;;;12.68;5.60;;;;;;;4.57;100.00;102342.47;5034639;28;20021;-76
2021/12/18 11:06:09;;;;;;;15.10;6.15;;;;;;;4.56;100.00;102341.56;5036026;28;20025;-75
2021/12/18 11:08:52;;;;;;;11.82;5.90;;;;;;;4.70;100.00;102338.41;5036119;28;20033;-75
2021/12/18 11:14:08;;;;;;;13.48;6.50;;;;;;;4.53;100.00;102333.56;5036732;28;20057;-75
2021/12/18 11:16:36;;;;;;;12.77;5.50;;;;;;;4.68;100.00;102326.91;5035996;28;20033;-75
2021/12/18 11:19:07;;;;;;;13.07;5.90;;;;;;;4.66;100.00;102321.56;5034337;28;20031;-75
2021/12/18 11:21:34;;;;;;;13.02;5.60;;;;;;;4.64;100.00;102327.69;5035917;28;20109;-76
2021/12/18 11:24:06;;;;;;;10.27;4.75;;;;;;;4.61;100.00;102319.66;5036656;28;20036;-76
2021/12/18 11:26:41;;;;;;;9.68;4.78;;;;;;;4.68;100.00;102318.97;5036180;28;20048;-76
2021/12/18 11:29:18;;;;;;;9.80;4.72;;;;;;;4.62;100.00;102318.78;5034202;28;20175;-76
2021/12/18 11:31:46;;;;;;;11.13;5.30;;;;;;;4.64;100.00;102314.44;5035534;28;20024;-75
2021/12/18 11:34:11;;;;;;;8.50;3.83;;;;;;;4.67;100.00;102306.56;5035557;28;20363;-75
2021/12/18 11:36:43;;;;;;;9.10;4.22;;;;;;;4.72;100.00;102310.25;5035150;28;20083;-75
2021/12/18 11:39:10;;;;;;;8.30;3.90;;;;;;;4.75;100.00;102307.69;5033950;28;20025;-75
2021/12/18 11:41:37;;;;;;;9.48;4.15;;;;;;;4.71;100.00;102308.47;5035505;28;20021;-75
2021/12/18 11:44:30;;;;;;;7.80;4.13;;;;;;;4.69;100.00;102310.19;5034163;28;20101;-75
2021/12/18 11:46:58;;;;;;;7.10;4.15;;;;;;;4.69;100.00;102302.25;5035286;28;20045;-77
2021/12/18 11:49:26;;;;;;;8.40;3.58;;;;;;;4.71;100.00;102305.81;5035102;28;20034;-76
2021/12/18 11:52:04;;;;;;;7.60;3.90;;;;;;;4.67;100.00;102301.28;5035620;28;20048;-75
2021/12/18 11:54:51;;;;;;;9.18;4.22;;;;;;;4.67;100.00;102302.19;5035151;28;20025;-75
2021/12/18 11:57:37;;;;;;;9.20;4.60;;;;;;;4.69;100.00;102304.88;5045564;23;21348;-74
2021/12/18 12:00:06;;;;;;;9.25;5.35;;;;;;;4.74;100.00;102292.63;5034693;28;20041;-74